sensor_id;sensor_type;location;lat;lon;timestamp;temperature;humidity
36444;DHT22;24692;45.642;13.806;2023-05-07T00:02:25;17.40;99.90
36444;DHT22;24692;45.642;13.806;2023-05-07T00:04:51;17.40;99.90
36444;DHT22;24692;45.642;13.806;2023-05-07T00:07:17;17.40;99.90
36444;DHT22;24692;45.642;13.806;2023-05-07T00:09:43;17.40;99.90
36444;DHT22;24692;45.642;13.806;2023-05-07T00:12:09;17.20;99.90
36444;DHT22;24692;45.642;13.806;2023-05-07T00:14:35;17.10;99.90
36444;DHT22;24692;45.642;13.806;2023-05-07T00:17:00;17.00;99.90
36444;DHT22;24692;45.642;13.806;2023-05-07T00:19:26;17.00;99.90
36444;DHT22;24692;45.642;13.806;2023-05-07T00:21:52;17.00;99.90
36444;DHT22;24692;45.642;13.806;2023-05-07T00:24:19;16.90;99.90
36444;DHT22;24692;45.642;13.806;2023-05-07T00:26:45;16.90;99.90
36444;DHT22;24692;45.642;13.806;2023-05-07T00:29:10;16.90;99.90
36444;DHT22;24692;45.642;13.806;2023-05-07T00:31:36;16.90;99.90
36444;DHT22;24692;45.642;13.806;2023-05-07T00:34:02;16.80;99.90
36444;DHT22;24692;45.642;13.806;2023-05-07T00:36:28;16.80;99.90
36444;DHT22;24692;45.642;13.806;2023-05-07T00:38:54;16.70;99.90
36444;DHT22;24692;45.642;13.806;2023-05-07T00:41:21;16.70;99.90
36444;DHT22;24692;45.642;13.806;2023-05-07T00:43:46;16.80;99.90
36444;DHT22;24692;45.642;13.806;2023-05-07T00:46:13;16.90;99.90
36444;DHT22;24692;45.642;13.806;2023-05-07T00:48:39;17.00;99.90
36444;DHT22;24692;45.642;13.806;2023-05-07T00:51:05;17.00;99.90
36444;DHT22;24692;45.642;13.806;2023-05-07T00:53:31;17.10;99.90
36444;DHT22;24692;45.642;13.806;2023-05-07T00:55:57;17.00;99.90
36444;DHT22;24692;45.642;13.806;2023-05-07T00:58:23;17.10;99.90
36444;DHT22;24692;45.642;13.806;2023-05-07T01:00:49;17.10;99.90
36444;DHT22;24692;45.642;13.806;2023-05-07T01:03:15;17.10;99.90
36444;DHT22;24692;45.642;13.806;2023-05-07T01:05:42;17.00;99.90
36444;DHT22;24692;45.642;13.806;2023-05-07T01:08:08;17.10;99.90
36444;DHT22;24692;45.642;13.806;2023-05-07T01:10:34;17.10;99.90
36444;DHT22;24692;45.642;13.806;2023-05-07T01:13:00;17.00;99.90
36444;DHT22;24692;45.642;13.806;2023-05-07T01:15:26;17.00;99.90
36444;DHT22;24692;45.642;13.806;2023-05-07T01:17:52;17.00;99.90
36444;DHT22;24692;45.642;13.806;2023-05-07T01:20:18;17.00;99.90
36444;DHT22;24692;45.642;13.806;2023-05-07T01:22:45;16.90;99.90
36444;DHT22;24692;45.642;13.806;2023-05-07T01:25:11;16.90;99.90
36444;DHT22;24692;45.642;13.806;2023-05-07T01:27:37;16.90;99.90
36444;DHT22;24692;45.642;13.806;2023-05-07T01:30:04;16.90;99.90
36444;DHT22;24692;45.642;13.806;2023-05-07T01:35:02;16.90;99.90
36444;DHT22;24692;45.642;13.806;2023-05-07T01:37:29;16.90;99.90
36444;DHT22;24692;45.642;13.806;2023-05-07T01:39:55;16.90;99.90
36444;DHT22;24692;45.642;13.806;2023-05-07T01:42:22;16.90;99.90
36444;DHT22;24692;45.642;13.806;2023-05-07T01:44:47;16.90;99.90
36444;DHT22;24692;45.642;13.806;2023-05-07T01:47:14;16.90;99.90
36444;DHT22;24692;45.642;13.806;2023-05-07T01:49:41;16.90;99.90
36444;DHT22;24692;45.642;13.806;2023-05-07T01:52:07;17.00;99.90
36444;DHT22;24692;45.642;13.806;2023-05-07T01:54:33;17.00;99.90
36444;DHT22;24692;45.642;13.806;2023-05-07T01:56:58;16.90;99.90
36444;DHT22;24692;45.642;13.806;2023-05-07T01:59:24;17.00;99.90
36444;DHT22;24692;45.642;13.806;2023-05-07T02:01:50;17.00;99.90
36444;DHT22;24692;45.642;13.806;2023-05-07T02:04:16;17.00;99.90
36444;DHT22;24692;45.642;13.806;2023-05-07T02:06:41;17.00;99.90
36444;DHT22;24692;45.642;13.806;2023-05-07T02:09:07;17.10;99.90
36444;DHT22;24692;45.642;13.806;2023-05-07T02:11:34;17.10;99.90
36444;DHT22;24692;45.642;13.806;2023-05-07T02:14:00;17.20;99.90
36444;DHT22;24692;45.642;13.806;2023-05-07T02:16:25;17.20;99.90
36444;DHT22;24692;45.642;13.806;2023-05-07T02:18:51;17.10;99.90
36444;DHT22;24692;45.642;13.806;2023-05-07T02:21:17;17.00;99.90
36444;DHT22;24692;45.642;13.806;2023-05-07T02:23:42;17.00;99.90
36444;DHT22;24692;45.642;13.806;2023-05-07T02:26:08;17.00;99.90
36444;DHT22;24692;45.642;13.806;2023-05-07T02:28:34;17.00;99.90
36444;DHT22;24692;45.642;13.806;2023-05-07T02:31:03;17.00;99.90
36444;DHT22;24692;45.642;13.806;2023-05-07T02:33:29;17.00;99.90
36444;DHT22;24692;45.642;13.806;2023-05-07T02:35:55;17.00;99.90
36444;DHT22;24692;45.642;13.806;2023-05-07T02:38:21;16.90;99.90
36444;DHT22;24692;45.642;13.806;2023-05-07T02:40:47;17.00;99.90
36444;DHT22;24692;45.642;13.806;2023-05-07T02:43:12;16.90;99.90
36444;DHT22;24692;45.642;13.806;2023-05-07T02:45:39;17.00;99.90
36444;DHT22;24692;45.642;13.806;2023-05-07T02:48:05;16.90;99.90
36444;DHT22;24692;45.642;13.806;2023-05-07T02:50:31;17.00;99.90
36444;DHT22;24692;45.642;13.806;2023-05-07T02:52:58;17.00;99.90
36444;DHT22;24692;45.642;13.806;2023-05-07T02:55:24;16.90;99.90
36444;DHT22;24692;45.642;13.806;2023-05-07T02:57:50;16.90;99.90
36444;DHT22;24692;45.642;13.806;2023-05-07T03:00:19;16.90;99.90
36444;DHT22;24692;45.642;13.806;2023-05-07T03:02:46;16.90;99.90
36444;DHT22;24692;45.642;13.806;2023-05-07T03:05:12;16.80;99.90
36444;DHT22;24692;45.642;13.806;2023-05-07T03:07:38;16.80;99.90
36444;DHT22;24692;45.642;13.806;2023-05-07T03:10:04;16.70;99.90
36444;DHT22;24692;45.642;13.806;2023-05-07T03:12:30;16.70;99.90
36444;DHT22;24692;45.642;13.806;2023-05-07T03:14:56;16.80;99.90
36444;DHT22;24692;45.642;13.806;2023-05-07T03:17:22;16.80;99.90
36444;DHT22;24692;45.642;13.806;2023-05-07T03:19:48;16.80;99.90
36444;DHT22;24692;45.642;13.806;2023-05-07T03:22:14;16.80;99.90
36444;DHT22;24692;45.642;13.806;2023-05-07T03:24:39;16.80;99.90
36444;DHT22;24692;45.642;13.806;2023-05-07T03:27:05;16.80;99.90
36444;DHT22;24692;45.642;13.806;2023-05-07T03:29:31;16.80;99.90
36444;DHT22;24692;45.642;13.806;2023-05-07T03:31:56;16.90;99.90
36444;DHT22;24692;45.642;13.806;2023-05-07T03:34:22;16.90;99.90
36444;DHT22;24692;45.642;13.806;2023-05-07T03:36:51;16.90;99.90
36444;DHT22;24692;45.642;13.806;2023-05-07T03:39:17;16.90;99.90
36444;DHT22;24692;45.642;13.806;2023-05-07T03:41:42;16.90;99.90
36444;DHT22;24692;45.642;13.806;2023-05-07T03:44:08;16.80;99.90
36444;DHT22;24692;45.642;13.806;2023-05-07T03:46:34;16.70;99.90
36444;DHT22;24692;45.642;13.806;2023-05-07T03:49:00;16.70;99.90
36444;DHT22;24692;45.642;13.806;2023-05-07T03:51:25;16.80;99.90
36444;DHT22;24692;45.642;13.806;2023-05-07T03:53:52;16.70;99.90
36444;DHT22;24692;45.642;13.806;2023-05-07T03:56:23;16.70;99.90
36444;DHT22;24692;45.642;13.806;2023-05-07T03:58:52;16.70;99.90
36444;DHT22;24692;45.642;13.806;2023-05-07T04:01:17;16.70;99.90
36444;DHT22;24692;45.642;13.806;2023-05-07T04:03:43;16.70;99.90
36444;DHT22;24692;45.642;13.806;2023-05-07T04:06:09;16.70;99.90
36444;DHT22;24692;45.642;13.806;2023-05-07T04:08:34;16.80;99.90
36444;DHT22;24692;45.642;13.806;2023-05-07T04:11:00;16.90;99.90
36444;DHT22;24692;45.642;13.806;2023-05-07T04:13:26;16.90;99.90
36444;DHT22;24692;45.642;13.806;2023-05-07T04:15:55;16.90;99.90
36444;DHT22;24692;45.642;13.806;2023-05-07T04:18:21;16.80;99.90
36444;DHT22;24692;45.642;13.806;2023-05-07T04:20:47;16.90;99.90
36444;DHT22;24692;45.642;13.806;2023-05-07T04:23:14;16.90;99.90
36444;DHT22;24692;45.642;13.806;2023-05-07T04:25:40;16.90;99.90
36444;DHT22;24692;45.642;13.806;2023-05-07T04:28:06;17.00;99.90
36444;DHT22;24692;45.642;13.806;2023-05-07T04:30:31;17.10;99.90
36444;DHT22;24692;45.642;13.806;2023-05-07T04:32:57;17.10;99.90
36444;DHT22;24692;45.642;13.806;2023-05-07T04:35:23;17.10;99.90
36444;DHT22;24692;45.642;13.806;2023-05-07T04:37:48;17.10;99.90
36444;DHT22;24692;45.642;13.806;2023-05-07T04:40:14;17.10;99.90
36444;DHT22;24692;45.642;13.806;2023-05-07T04:42:40;17.10;99.90
36444;DHT22;24692;45.642;13.806;2023-05-07T04:45:06;17.20;99.90
36444;DHT22;24692;45.642;13.806;2023-05-07T04:47:31;17.30;99.90
36444;DHT22;24692;45.642;13.806;2023-05-07T04:49:58;17.30;99.90
36444;DHT22;24692;45.642;13.806;2023-05-07T04:52:23;17.30;99.90
36444;DHT22;24692;45.642;13.806;2023-05-07T04:54:49;17.30;99.90
36444;DHT22;24692;45.642;13.806;2023-05-07T04:57:15;17.30;99.90
36444;DHT22;24692;45.642;13.806;2023-05-07T04:59:42;17.40;99.90
36444;DHT22;24692;45.642;13.806;2023-05-07T05:02:07;17.50;99.90
36444;DHT22;24692;45.642;13.806;2023-05-07T05:04:33;17.70;99.90
36444;DHT22;24692;45.642;13.806;2023-05-07T05:06:59;17.70;99.90
36444;DHT22;24692;45.642;13.806;2023-05-07T05:09:24;17.80;99.90
36444;DHT22;24692;45.642;13.806;2023-05-07T05:11:50;17.80;99.90
36444;DHT22;24692;45.642;13.806;2023-05-07T05:14:16;17.80;99.90
36444;DHT22;24692;45.642;13.806;2023-05-07T05:16:41;17.90;99.90
36444;DHT22;24692;45.642;13.806;2023-05-07T05:19:07;17.90;99.90
36444;DHT22;24692;45.642;13.806;2023-05-07T05:21:32;18.00;99.90
36444;DHT22;24692;45.642;13.806;2023-05-07T05:23:58;18.00;99.90
36444;DHT22;24692;45.642;13.806;2023-05-07T05:26:24;18.00;99.90
36444;DHT22;24692;45.642;13.806;2023-05-07T05:28:50;18.10;99.90
36444;DHT22;24692;45.642;13.806;2023-05-07T05:31:16;18.20;99.90
36444;DHT22;24692;45.642;13.806;2023-05-07T05:33:42;18.30;99.90
36444;DHT22;24692;45.642;13.806;2023-05-07T05:36:09;18.40;99.90
36444;DHT22;24692;45.642;13.806;2023-05-07T05:38:36;18.50;99.90
36444;DHT22;24692;45.642;13.806;2023-05-07T05:41:01;18.50;99.90
36444;DHT22;24692;45.642;13.806;2023-05-07T05:43:27;18.60;99.90
36444;DHT22;24692;45.642;13.806;2023-05-07T05:45:53;18.70;99.90
36444;DHT22;24692;45.642;13.806;2023-05-07T05:48:18;18.80;99.90
36444;DHT22;24692;45.642;13.806;2023-05-07T05:50:44;18.90;99.90
36444;DHT22;24692;45.642;13.806;2023-05-07T05:53:10;19.10;99.90
36444;DHT22;24692;45.642;13.806;2023-05-07T05:55:35;19.30;99.90
36444;DHT22;24692;45.642;13.806;2023-05-07T05:58:01;19.50;99.90
36444;DHT22;24692;45.642;13.806;2023-05-07T06:00:27;19.60;99.90
36444;DHT22;24692;45.642;13.806;2023-05-07T06:02:53;19.80;99.90
36444;DHT22;24692;45.642;13.806;2023-05-07T06:05:18;19.90;99.90
36444;DHT22;24692;45.642;13.806;2023-05-07T06:07:44;20.00;99.90
36444;DHT22;24692;45.642;13.806;2023-05-07T06:10:10;20.10;99.90
36444;DHT22;24692;45.642;13.806;2023-05-07T06:12:35;20.20;99.90
36444;DHT22;24692;45.642;13.806;2023-05-07T06:15:01;20.20;99.90
36444;DHT22;24692;45.642;13.806;2023-05-07T06:17:27;20.20;99.90
36444;DHT22;24692;45.642;13.806;2023-05-07T06:19:53;20.20;99.90
36444;DHT22;24692;45.642;13.806;2023-05-07T06:22:18;20.20;99.90
36444;DHT22;24692;45.642;13.806;2023-05-07T06:24:44;20.10;99.90
36444;DHT22;24692;45.642;13.806;2023-05-07T06:27:10;20.20;99.90
36444;DHT22;24692;45.642;13.806;2023-05-07T06:29:35;20.20;99.90
36444;DHT22;24692;45.642;13.806;2023-05-07T06:32:12;20.30;99.90
36444;DHT22;24692;45.642;13.806;2023-05-07T06:34:39;20.20;99.90
36444;DHT22;24692;45.642;13.806;2023-05-07T06:37:05;20.20;99.90
36444;DHT22;24692;45.642;13.806;2023-05-07T06:39:31;20.20;99.90
36444;DHT22;24692;45.642;13.806;2023-05-07T06:41:57;20.20;99.90
36444;DHT22;24692;45.642;13.806;2023-05-07T06:44:23;20.30;99.90
36444;DHT22;24692;45.642;13.806;2023-05-07T06:46:49;20.50;99.90
36444;DHT22;24692;45.642;13.806;2023-05-07T06:49:15;20.60;99.90
36444;DHT22;24692;45.642;13.806;2023-05-07T06:51:40;20.70;99.90
36444;DHT22;24692;45.642;13.806;2023-05-07T06:54:06;20.90;99.90
36444;DHT22;24692;45.642;13.806;2023-05-07T06:56:32;20.80;99.90
36444;DHT22;24692;45.642;13.806;2023-05-07T06:58:59;20.90;99.90
36444;DHT22;24692;45.642;13.806;2023-05-07T07:01:24;21.10;99.90
36444;DHT22;24692;45.642;13.806;2023-05-07T07:03:50;21.20;99.90
36444;DHT22;24692;45.642;13.806;2023-05-07T07:06:16;21.10;99.90
36444;DHT22;24692;45.642;13.806;2023-05-07T07:08:42;21.10;99.90
36444;DHT22;24692;45.642;13.806;2023-05-07T07:11:08;21.30;99.90
36444;DHT22;24692;45.642;13.806;2023-05-07T07:13:34;21.50;99.90
36444;DHT22;24692;45.642;13.806;2023-05-07T07:16:00;21.60;99.90
36444;DHT22;24692;45.642;13.806;2023-05-07T07:18:25;21.60;99.90
36444;DHT22;24692;45.642;13.806;2023-05-07T07:20:51;21.80;99.90
36444;DHT22;24692;45.642;13.806;2023-05-07T07:23:17;22.00;99.90
36444;DHT22;24692;45.642;13.806;2023-05-07T07:25:42;22.20;99.90
36444;DHT22;24692;45.642;13.806;2023-05-07T07:28:08;22.20;99.90
36444;DHT22;24692;45.642;13.806;2023-05-07T07:30:34;22.40;99.90
36444;DHT22;24692;45.642;13.806;2023-05-07T07:32:59;22.40;99.90
36444;DHT22;24692;45.642;13.806;2023-05-07T07:35:31;22.40;99.90
36444;DHT22;24692;45.642;13.806;2023-05-07T07:37:58;22.40;99.90
36444;DHT22;24692;45.642;13.806;2023-05-07T07:40:24;22.60;99.90
36444;DHT22;24692;45.642;13.806;2023-05-07T07:42:53;22.80;99.90
36444;DHT22;24692;45.642;13.806;2023-05-07T07:45:19;22.90;99.90
36444;DHT22;24692;45.642;13.806;2023-05-07T07:47:45;23.10;99.90
36444;DHT22;24692;45.642;13.806;2023-05-07T07:50:11;23.20;99.90
36444;DHT22;24692;45.642;13.806;2023-05-07T07:52:37;23.40;99.90
36444;DHT22;24692;45.642;13.806;2023-05-07T07:55:03;23.60;99.90
36444;DHT22;24692;45.642;13.806;2023-05-07T07:57:28;23.70;99.90
36444;DHT22;24692;45.642;13.806;2023-05-07T07:59:54;23.80;99.90
36444;DHT22;24692;45.642;13.806;2023-05-07T08:02:20;24.00;99.90
36444;DHT22;24692;45.642;13.806;2023-05-07T08:04:46;24.10;99.90
36444;DHT22;24692;45.642;13.806;2023-05-07T08:07:12;24.20;99.90
36444;DHT22;24692;45.642;13.806;2023-05-07T08:09:38;24.30;99.90
36444;DHT22;24692;45.642;13.806;2023-05-07T08:12:07;24.90;99.90
36444;DHT22;24692;45.642;13.806;2023-05-07T08:14:34;25.80;99.90
36444;DHT22;24692;45.642;13.806;2023-05-07T08:16:59;26.70;99.90
36444;DHT22;24692;45.642;13.806;2023-05-07T08:19:25;27.60;99.90
36444;DHT22;24692;45.642;13.806;2023-05-07T08:21:51;27.60;99.90
36444;DHT22;24692;45.642;13.806;2023-05-07T08:24:18;27.80;99.90
36444;DHT22;24692;45.642;13.806;2023-05-07T08:26:44;27.80;99.90
36444;DHT22;24692;45.642;13.806;2023-05-07T08:29:10;27.50;99.90
36444;DHT22;24692;45.642;13.806;2023-05-07T08:31:36;27.70;99.90
36444;DHT22;24692;45.642;13.806;2023-05-07T08:34:02;27.90;99.90
36444;DHT22;24692;45.642;13.806;2023-05-07T08:36:28;27.80;99.90
36444;DHT22;24692;45.642;13.806;2023-05-07T08:38:54;27.30;99.90
36444;DHT22;24692;45.642;13.806;2023-05-07T08:41:20;26.70;99.90
36444;DHT22;24692;45.642;13.806;2023-05-07T08:43:49;26.50;99.90
36444;DHT22;24692;45.642;13.806;2023-05-07T08:46:20;26.40;99.90
36444;DHT22;24692;45.642;13.806;2023-05-07T08:48:49;26.50;99.90
36444;DHT22;24692;45.642;13.806;2023-05-07T08:51:20;27.00;99.90
36444;DHT22;24692;45.642;13.806;2023-05-07T08:53:47;27.20;99.90
36444;DHT22;24692;45.642;13.806;2023-05-07T08:56:14;28.00;99.90
36444;DHT22;24692;45.642;13.806;2023-05-07T08:58:41;28.00;99.90
36444;DHT22;24692;45.642;13.806;2023-05-07T09:01:10;28.40;99.90
36444;DHT22;24692;45.642;13.806;2023-05-07T09:03:38;28.10;99.90
36444;DHT22;24692;45.642;13.806;2023-05-07T09:06:05;27.90;99.90
36444;DHT22;24692;45.642;13.806;2023-05-07T09:08:32;27.80;99.90
36444;DHT22;24692;45.642;13.806;2023-05-07T09:10:58;27.40;99.90
36444;DHT22;24692;45.642;13.806;2023-05-07T09:13:24;27.40;99.90
36444;DHT22;24692;45.642;13.806;2023-05-07T09:15:50;27.70;99.90
36444;DHT22;24692;45.642;13.806;2023-05-07T09:18:16;27.80;99.90
36444;DHT22;24692;45.642;13.806;2023-05-07T09:20:41;28.00;99.90
36444;DHT22;24692;45.642;13.806;2023-05-07T09:23:07;27.90;99.90
36444;DHT22;24692;45.642;13.806;2023-05-07T09:25:34;27.80;99.90
36444;DHT22;24692;45.642;13.806;2023-05-07T09:28:00;27.90;99.90
36444;DHT22;24692;45.642;13.806;2023-05-07T09:30:33;27.40;99.90
36444;DHT22;24692;45.642;13.806;2023-05-07T09:33:00;27.70;99.90
36444;DHT22;24692;45.642;13.806;2023-05-07T09:35:26;27.20;99.90
36444;DHT22;24692;45.642;13.806;2023-05-07T09:38:00;27.30;99.90
36444;DHT22;24692;45.642;13.806;2023-05-07T09:40:28;27.60;99.90
36444;DHT22;24692;45.642;13.806;2023-05-07T09:42:54;27.40;99.90
36444;DHT22;24692;45.642;13.806;2023-05-07T09:45:27;27.20;99.90
36444;DHT22;24692;45.642;13.806;2023-05-07T09:47:57;27.40;99.90
36444;DHT22;24692;45.642;13.806;2023-05-07T09:50:30;27.90;99.90
36444;DHT22;24692;45.642;13.806;2023-05-07T09:52:58;27.90;99.90
36444;DHT22;24692;45.642;13.806;2023-05-07T09:55:24;27.20;99.90
36444;DHT22;24692;45.642;13.806;2023-05-07T09:57:51;27.50;99.90
36444;DHT22;24692;45.642;13.806;2023-05-07T10:00:19;27.80;99.90
36444;DHT22;24692;45.642;13.806;2023-05-07T10:02:47;28.10;99.90
36444;DHT22;24692;45.642;13.806;2023-05-07T10:05:14;28.10;99.90
36444;DHT22;24692;45.642;13.806;2023-05-07T10:07:41;28.10;99.90
36444;DHT22;24692;45.642;13.806;2023-05-07T10:10:07;28.00;99.90
36444;DHT22;24692;45.642;13.806;2023-05-07T10:12:33;28.50;99.90
36444;DHT22;24692;45.642;13.806;2023-05-07T10:15:06;28.60;99.90
36444;DHT22;24692;45.642;13.806;2023-05-07T10:17:38;28.70;99.90
36444;DHT22;24692;45.642;13.806;2023-05-07T10:20:07;27.70;99.90
36444;DHT22;24692;45.642;13.806;2023-05-07T10:22:54;28.20;99.90
36444;DHT22;24692;45.642;13.806;2023-05-07T10:25:25;29.00;99.90
36444;DHT22;24692;45.642;13.806;2023-05-07T10:27:52;29.10;99.90
36444;DHT22;24692;45.642;13.806;2023-05-07T10:33:17;29.20;99.90
36444;DHT22;24692;45.642;13.806;2023-05-07T10:35:45;28.70;99.90
36444;DHT22;24692;45.642;13.806;2023-05-07T10:38:12;28.60;99.90
36444;DHT22;24692;45.642;13.806;2023-05-07T10:40:38;28.80;99.90
36444;DHT22;24692;45.642;13.806;2023-05-07T10:43:04;28.40;99.90
36444;DHT22;24692;45.642;13.806;2023-05-07T10:45:31;28.40;99.90
36444;DHT22;24692;45.642;13.806;2023-05-07T10:48:13;28.60;99.90
36444;DHT22;24692;45.642;13.806;2023-05-07T10:50:45;29.20;99.90
36444;DHT22;24692;45.642;13.806;2023-05-07T10:55:49;29.10;99.90
36444;DHT22;24692;45.642;13.806;2023-05-07T11:00:49;30.30;99.90
36444;DHT22;24692;45.642;13.806;2023-05-07T11:03:15;30.20;99.90
36444;DHT22;24692;45.642;13.806;2023-05-07T11:05:42;30.10;99.90
36444;DHT22;24692;45.642;13.806;2023-05-07T11:08:08;30.40;99.90
36444;DHT22;24692;45.642;13.806;2023-05-07T11:10:56;30.00;99.90
36444;DHT22;24692;45.642;13.806;2023-05-07T11:13:48;29.50;99.90
36444;DHT22;24692;45.642;13.806;2023-05-07T11:16:24;30.40;99.90
36444;DHT22;24692;45.642;13.806;2023-05-07T11:18:56;30.30;99.90
36444;DHT22;24692;45.642;13.806;2023-05-07T11:21:41;30.40;99.90
36444;DHT22;24692;45.642;13.806;2023-05-07T11:24:10;30.40;99.90
36444;DHT22;24692;45.642;13.806;2023-05-07T11:26:47;30.10;99.90
36444;DHT22;24692;45.642;13.806;2023-05-07T11:29:15;29.90;99.90
36444;DHT22;24692;45.642;13.806;2023-05-07T11:31:41;29.90;99.90
36444;DHT22;24692;45.642;13.806;2023-05-07T11:34:08;29.90;99.90
36444;DHT22;24692;45.642;13.806;2023-05-07T11:36:34;29.50;99.90
36444;DHT22;24692;45.642;13.806;2023-05-07T11:39:00;30.20;99.90
36444;DHT22;24692;45.642;13.806;2023-05-07T11:41:37;30.20;99.90
36444;DHT22;24692;45.642;13.806;2023-05-07T11:44:03;30.50;99.90
36444;DHT22;24692;45.642;13.806;2023-05-07T11:46:29;31.10;99.90
36444;DHT22;24692;45.642;13.806;2023-05-07T11:48:56;30.50;99.90
36444;DHT22;24692;45.642;13.806;2023-05-07T11:51:24;30.10;99.90
36444;DHT22;24692;45.642;13.806;2023-05-07T11:53:51;30.30;99.90
36444;DHT22;24692;45.642;13.806;2023-05-07T11:56:18;29.50;99.90
36444;DHT22;24692;45.642;13.806;2023-05-07T11:58:45;28.40;99.90
36444;DHT22;24692;45.642;13.806;2023-05-07T12:01:13;29.30;99.90
36444;DHT22;24692;45.642;13.806;2023-05-07T12:03:43;29.30;99.90
36444;DHT22;24692;45.642;13.806;2023-05-07T12:06:11;29.60;99.90
36444;DHT22;24692;45.642;13.806;2023-05-07T12:08:39;28.50;99.90
36444;DHT22;24692;45.642;13.806;2023-05-07T12:11:08;29.20;99.90
36444;DHT22;24692;45.642;13.806;2023-05-07T12:13:34;29.90;99.90
36444;DHT22;24692;45.642;13.806;2023-05-07T12:16:00;30.40;99.90
36444;DHT22;24692;45.642;13.806;2023-05-07T12:18:28;29.70;99.90
36444;DHT22;24692;45.642;13.806;2023-05-07T12:20:55;29.50;99.90
36444;DHT22;24692;45.642;13.806;2023-05-07T12:23:22;29.90;99.90
36444;DHT22;24692;45.642;13.806;2023-05-07T12:25:48;28.90;99.90
36444;DHT22;24692;45.642;13.806;2023-05-07T12:28:18;28.60;99.90
36444;DHT22;24692;45.642;13.806;2023-05-07T12:30:45;28.30;99.90
36444;DHT22;24692;45.642;13.806;2023-05-07T12:33:11;29.00;99.90
36444;DHT22;24692;45.642;13.806;2023-05-07T12:35:39;30.00;99.90
36444;DHT22;24692;45.642;13.806;2023-05-07T12:38:14;30.40;99.90
36444;DHT22;24692;45.642;13.806;2023-05-07T12:40:45;30.70;99.90
36444;DHT22;24692;45.642;13.806;2023-05-07T12:43:21;29.60;99.90
36444;DHT22;24692;45.642;13.806;2023-05-07T12:45:49;28.60;99.90
36444;DHT22;24692;45.642;13.806;2023-05-07T12:48:14;28.40;98.80
36444;DHT22;24692;45.642;13.806;2023-05-07T12:50:40;28.50;99.90
36444;DHT22;24692;45.642;13.806;2023-05-07T12:53:07;29.10;99.90
36444;DHT22;24692;45.642;13.806;2023-05-07T12:55:41;29.40;99.90
36444;DHT22;24692;45.642;13.806;2023-05-07T12:58:08;29.50;99.90
36444;DHT22;24692;45.642;13.806;2023-05-07T13:00:37;28.90;99.90
36444;DHT22;24692;45.642;13.806;2023-05-07T13:03:04;28.10;99.90
36444;DHT22;24692;45.642;13.806;2023-05-07T13:05:31;28.00;99.90
36444;DHT22;24692;45.642;13.806;2023-05-07T13:07:57;27.10;99.90
36444;DHT22;24692;45.642;13.806;2023-05-07T13:10:23;26.70;99.90
36444;DHT22;24692;45.642;13.806;2023-05-07T13:12:49;26.50;99.90
36444;DHT22;24692;45.642;13.806;2023-05-07T13:15:16;26.60;99.90
36444;DHT22;24692;45.642;13.806;2023-05-07T13:17:41;26.50;99.90
36444;DHT22;24692;45.642;13.806;2023-05-07T13:20:09;26.40;99.90
36444;DHT22;24692;45.642;13.806;2023-05-07T13:22:35;26.60;99.90
36444;DHT22;24692;45.642;13.806;2023-05-07T13:25:01;26.60;99.90
36444;DHT22;24692;45.642;13.806;2023-05-07T13:27:26;25.90;99.90
36444;DHT22;24692;45.642;13.806;2023-05-07T13:29:52;25.40;99.90
36444;DHT22;24692;45.642;13.806;2023-05-07T13:32:21;25.10;99.90
36444;DHT22;24692;45.642;13.806;2023-05-07T13:34:47;24.90;99.90
36444;DHT22;24692;45.642;13.806;2023-05-07T13:37:16;24.80;99.90
36444;DHT22;24692;45.642;13.806;2023-05-07T13:39:42;24.80;99.90
36444;DHT22;24692;45.642;13.806;2023-05-07T13:42:11;24.60;99.90
36444;DHT22;24692;45.642;13.806;2023-05-07T13:44:37;24.40;99.90
36444;DHT22;24692;45.642;13.806;2023-05-07T13:47:02;24.30;99.90
36444;DHT22;24692;45.642;13.806;2023-05-07T13:49:29;24.10;99.90
36444;DHT22;24692;45.642;13.806;2023-05-07T13:51:55;24.00;99.90
36444;DHT22;24692;45.642;13.806;2023-05-07T13:54:21;23.90;99.90
36444;DHT22;24692;45.642;13.806;2023-05-07T13:56:46;24.00;99.90
36444;DHT22;24692;45.642;13.806;2023-05-07T13:59:12;24.00;99.90
36444;DHT22;24692;45.642;13.806;2023-05-07T14:01:40;23.80;99.90
36444;DHT22;24692;45.642;13.806;2023-05-07T14:04:06;23.90;99.90
36444;DHT22;24692;45.642;13.806;2023-05-07T14:06:33;23.90;99.90
36444;DHT22;24692;45.642;13.806;2023-05-07T14:08:58;23.70;99.90
36444;DHT22;24692;45.642;13.806;2023-05-07T14:11:25;23.40;99.90
36444;DHT22;24692;45.642;13.806;2023-05-07T14:13:51;23.80;99.90
36444;DHT22;24692;45.642;13.806;2023-05-07T14:16:16;24.30;99.90
36444;DHT22;24692;45.642;13.806;2023-05-07T14:18:42;24.80;99.90
36444;DHT22;24692;45.642;13.806;2023-05-07T14:21:07;25.10;99.90
36444;DHT22;24692;45.642;13.806;2023-05-07T14:23:35;25.00;99.90
36444;DHT22;24692;45.642;13.806;2023-05-07T14:26:00;25.50;99.90
36444;DHT22;24692;45.642;13.806;2023-05-07T14:28:26;25.40;99.90
36444;DHT22;24692;45.642;13.806;2023-05-07T14:30:51;25.90;99.90
36444;DHT22;24692;45.642;13.806;2023-05-07T14:33:17;26.60;99.90
36444;DHT22;24692;45.642;13.806;2023-05-07T14:35:43;26.00;99.90
36444;DHT22;24692;45.642;13.806;2023-05-07T14:38:13;26.10;99.90
36444;DHT22;24692;45.642;13.806;2023-05-07T14:40:38;26.00;99.90
36444;DHT22;24692;45.642;13.806;2023-05-07T14:43:04;25.30;99.90
36444;DHT22;24692;45.642;13.806;2023-05-07T14:45:30;25.10;99.90
36444;DHT22;24692;45.642;13.806;2023-05-07T14:47:55;24.80;99.90
36444;DHT22;24692;45.642;13.806;2023-05-07T14:50:21;24.10;99.90
36444;DHT22;24692;45.642;13.806;2023-05-07T14:52:47;24.10;99.90
36444;DHT22;24692;45.642;13.806;2023-05-07T14:55:12;24.10;99.90
36444;DHT22;24692;45.642;13.806;2023-05-07T14:57:38;24.70;99.90
36444;DHT22;24692;45.642;13.806;2023-05-07T15:00:04;25.60;99.90
36444;DHT22;24692;45.642;13.806;2023-05-07T15:02:30;26.70;99.90
36444;DHT22;24692;45.642;13.806;2023-05-07T15:04:56;26.80;99.90
36444;DHT22;24692;45.642;13.806;2023-05-07T15:07:21;26.40;99.90
36444;DHT22;24692;45.642;13.806;2023-05-07T15:09:47;25.90;99.90
36444;DHT22;24692;45.642;13.806;2023-05-07T15:12:13;26.20;99.90
36444;DHT22;24692;45.642;13.806;2023-05-07T15:14:39;26.70;99.90
36444;DHT22;24692;45.642;13.806;2023-05-07T15:17:05;26.40;99.90
36444;DHT22;24692;45.642;13.806;2023-05-07T15:19:31;25.60;99.90
36444;DHT22;24692;45.642;13.806;2023-05-07T15:21:58;25.10;99.90
36444;DHT22;24692;45.642;13.806;2023-05-07T15:24:28;24.60;99.90